createdAt,value
2017-02-02T00:00:32.533Z,0
2017-02-02T00:01:33.345Z,0
2017-02-02T00:02:32.579Z,0
2017-02-02T00:03:34.043Z,0
2017-02-02T00:04:33.028Z,0
2017-02-02T00:05:33.485Z,0
2017-02-02T00:06:33.506Z,0
2017-02-02T00:07:33.521Z,0
2017-02-02T00:08:33.790Z,0
2017-02-02T00:09:33.551Z,0
2017-02-02T00:10:33.188Z,0
2017-02-02T00:11:34.021Z,0
2017-02-02T00:12:34.038Z,0
2017-02-02T00:13:33.923Z,0
2017-02-02T00:14:33.292Z,0
2017-02-02T00:15:34.133Z,0
2017-02-02T00:16:33.749Z,0
2017-02-02T00:17:33.782Z,0
2017-02-02T00:18:34.053Z,0
2017-02-02T00:19:33.824Z,0
2017-02-02T00:20:33.855Z,0
2017-02-02T00:21:34.281Z,0
2017-02-02T00:22:34.311Z,0
2017-02-02T00:23:34.589Z,0
2017-02-02T00:24:33.967Z,0
2017-02-02T00:25:34.400Z,0
2017-02-02T00:26:34.413Z,0
2017-02-02T00:27:34.441Z,0
2017-02-02T00:28:34.718Z,0
2017-02-02T00:29:34.099Z,0
2017-02-02T00:30:34.127Z,0
2017-02-02T00:31:33.365Z,0
2017-02-02T00:32:34.173Z,0
2017-02-02T00:33:34.846Z,0
2017-02-02T00:34:33.839Z,0
2017-02-02T00:35:34.680Z,0
2017-02-02T00:36:34.309Z,0
2017-02-02T00:37:34.714Z,0
2017-02-02T00:38:34.226Z,0
2017-02-02T00:39:33.979Z,0
2017-02-02T00:40:33.999Z,0
2017-02-02T00:41:34.032Z,0
2017-02-02T00:42:34.449Z,0
2017-02-02T00:43:34.974Z,0
2017-02-02T00:44:34.902Z,0
2017-02-02T00:45:34.928Z,0
2017-02-02T00:46:34.557Z,0
2017-02-02T00:47:34.585Z,0
2017-02-02T00:48:34.461Z,0
2017-02-02T00:49:34.634Z,0
2017-02-02T00:50:33.867Z,0
2017-02-02T00:51:33.904Z,0
2017-02-02T00:52:34.317Z,0
2017-02-02T00:53:34.845Z,0
2017-02-02T00:54:33.978Z,0
2017-02-02T00:55:35.195Z,0
2017-02-02T00:56:35.224Z,0
2017-02-02T00:57:34.842Z,0
2017-02-02T00:58:35.522Z,0
2017-02-02T00:59:35.302Z,0
2017-02-02T01:00:34.535Z,0
2017-02-02T01:01:34.959Z,0
2017-02-02T01:02:34.588Z,0
2017-02-02T01:03:35.268Z,0
2017-02-02T01:04:35.034Z,0
2017-02-02T01:05:35.463Z,0
2017-02-02T01:06:35.484Z,0
2017-02-02T01:07:35.119Z,0
2017-02-02T01:08:34.352Z,0
2017-02-02T01:09:35.441Z,0
2017-02-02T01:10:35.196Z,0
2017-02-02T01:11:35.232Z,0
2017-02-02T01:12:34.858Z,0
2017-02-02T01:13:34.884Z,0
2017-02-02T01:14:35.949Z,0
2017-02-02T01:15:35.726Z,0
2017-02-02T01:16:35.359Z,0
2017-02-02T01:17:35.792Z,0
2017-02-02T01:18:35.013Z,0
2017-02-02T01:19:36.335Z,0
2017-02-02T01:20:35.070Z,0
2017-02-02T01:21:35.896Z,0
2017-02-02T01:22:35.519Z,0
2017-02-02T01:23:35.152Z,0
2017-02-02T01:24:35.825Z,0
2017-02-02T01:25:35.602Z,0
2017-02-02T01:26:35.623Z,0
2017-02-02T01:27:36.047Z,0
2017-02-02T01:28:35.279Z,0
2017-02-02T01:29:35.949Z,0
2017-02-02T01:30:36.125Z,0
2017-02-02T01:31:36.157Z,0
2017-02-02T01:32:35.779Z,0
2017-02-02T01:33:36.200Z,0
2017-02-02T01:34:35.692Z,0
2017-02-02T01:35:35.076Z,0
2017-02-02T01:36:35.894Z,0
2017-02-02T01:37:36.310Z,0
2017-02-02T01:38:35.552Z,0
2017-02-02T01:39:36.223Z,0
2017-02-02T01:40:35.601Z,0
2017-02-02T01:41:35.625Z,0
2017-02-02T01:42:35.666Z,0
2017-02-02T01:43:36.076Z,0
2017-02-02T01:44:36.607Z,0
2017-02-02T01:45:36.132Z,0
2017-02-02T01:46:36.555Z,0
2017-02-02T01:47:36.181Z,0
2017-02-02T01:48:36.210Z,0
2017-02-02T01:49:36.875Z,0
2017-02-02T01:50:36.264Z,0
2017-02-02T01:51:35.889Z,0
2017-02-02T01:52:36.711Z,0
2017-02-02T01:53:36.346Z,0
2017-02-02T01:54:37.019Z,0
2017-02-02T01:55:36.404Z,0
2017-02-02T01:56:36.420Z,0
2017-02-02T01:57:36.056Z,0
2017-02-02T01:58:36.478Z,0
2017-02-02T01:59:36.902Z,0
2017-02-02T02:00:36.384Z,0
2017-02-02T02:01:36.956Z,0
2017-02-02T02:02:36.193Z,0
2017-02-02T02:03:36.614Z,0
2017-02-02T02:04:37.035Z,0
2017-02-02T02:05:36.522Z,0
2017-02-02T02:06:37.085Z,0
2017-02-02T02:07:36.716Z,0
2017-02-02T02:08:36.745Z,0
2017-02-02T02:09:36.766Z,0
2017-02-02T02:10:37.051Z,0
2017-02-02T02:11:36.827Z,0
2017-02-02T02:12:36.853Z,0
2017-02-02T02:13:36.480Z,0
2017-02-02T02:14:36.513Z,0
2017-02-02T02:15:37.435Z,0
2017-02-02T02:16:36.559Z,0
2017-02-02T02:17:36.980Z,0
2017-02-02T02:18:37.008Z,0
2017-02-02T02:19:37.033Z,0
2017-02-02T02:20:37.314Z,0
2017-02-02T02:21:37.090Z,0
2017-02-02T02:22:37.516Z,0
2017-02-02T02:23:37.149Z,0
2017-02-02T02:24:37.565Z,0
2017-02-02T02:25:37.445Z,0
2017-02-02T02:26:36.822Z,0
2017-02-02T02:27:36.855Z,0
2017-02-02T02:28:37.668Z,0
2017-02-02T02:29:37.297Z,0
2017-02-02T02:30:37.833Z,0
2017-02-02T02:31:36.958Z,0
2017-02-02T02:32:37.391Z,0
2017-02-02T02:33:37.804Z,0
2017-02-02T02:34:37.436Z,0
2017-02-02T02:35:38.097Z,0
2017-02-02T02:36:37.893Z,0
2017-02-02T02:37:37.907Z,0
2017-02-02T02:38:37.147Z,0
2017-02-02T02:39:37.956Z,0
2017-02-02T02:40:37.452Z,0
2017-02-02T02:41:37.229Z,0
2017-02-02T02:42:37.642Z,0
2017-02-02T02:43:38.071Z,0
2017-02-02T02:44:38.095Z,0
2017-02-02T02:45:36.936Z,0
2017-02-02T02:46:38.001Z,0
2017-02-02T02:47:38.174Z,0
2017-02-02T02:48:37.407Z,0
2017-02-02T02:49:37.068Z,0
2017-02-02T02:50:37.461Z,0
2017-02-02T02:51:38.397Z,0
2017-02-02T02:52:37.914Z,0
2017-02-02T02:53:37.938Z,0
2017-02-02T02:54:37.574Z,0
2017-02-02T02:55:37.988Z,0
2017-02-02T02:56:38.266Z,0
2017-02-02T02:57:38.044Z,0
2017-02-02T02:58:38.069Z,0
2017-02-02T02:59:37.703Z,0
2017-02-02T03:00:38.132Z,0
2017-02-02T03:01:38.795Z,0
2017-02-02T03:02:38.572Z,0
2017-02-02T03:03:37.805Z,0
2017-02-02T03:04:38.234Z,0
2017-02-02T03:05:37.464Z,0
2017-02-02T03:06:37.746Z,0
2017-02-02T03:07:38.308Z,0
2017-02-02T03:08:38.338Z,0
2017-02-02T03:09:38.366Z,0
2017-02-02T03:10:37.991Z,0
2017-02-02T03:11:38.663Z,0
2017-02-02T03:12:38.840Z,0
2017-02-02T03:13:38.469Z,0
2017-02-02T03:14:37.707Z,0
2017-02-02T03:15:38.529Z,0
2017-02-02T03:16:38.550Z,0
2017-02-02T03:17:39.218Z,0
2017-02-02T03:18:39.001Z,0
2017-02-02T03:19:39.045Z,0
2017-02-02T03:20:38.650Z,0
2017-02-02T03:21:39.075Z,0
2017-02-02T03:22:38.963Z,0
2017-02-02T03:23:37.945Z,0
2017-02-02T03:24:38.365Z,0
2017-02-02T03:25:37.995Z,0
2017-02-02T03:26:39.207Z,0
2017-02-02T03:27:38.699Z,0
2017-02-02T03:28:39.264Z,0
2017-02-02T03:29:39.289Z,0
2017-02-02T03:30:38.912Z,0
2017-02-02T03:31:38.545Z,0
2017-02-02T03:32:39.863Z,0
2017-02-02T03:33:38.998Z,0
2017-02-02T03:34:38.628Z,0
2017-02-02T03:35:38.660Z,0
2017-02-02T03:36:38.681Z,0
2017-02-02T03:37:39.357Z,0
2017-02-02T03:38:39.127Z,0
2017-02-02T03:39:39.552Z,0
2017-02-02T03:40:39.571Z,0
2017-02-02T03:41:39.601Z,0
2017-02-02T03:42:39.481Z,0
2017-02-02T03:43:39.254Z,0
2017-02-02T03:44:38.886Z,0
2017-02-02T03:45:39.316Z,0
2017-02-02T03:46:39.745Z,0
2017-02-02T03:47:39.862Z,0
2017-02-02T03:48:39.822Z,0
2017-02-02T03:49:39.814Z,0
2017-02-02T03:50:39.835Z,0
2017-02-02T03:51:39.476Z,0
2017-02-02T03:52:39.752Z,0
2017-02-02T03:53:39.534Z,0
2017-02-02T03:54:39.158Z,0
2017-02-02T03:55:39.183Z,0
2017-02-02T03:56:40.002Z,0
2017-02-02T03:57:39.885Z,0
2017-02-02T03:58:39.265Z,0
2017-02-02T03:59:39.321Z,0
2017-02-02T04:00:40.108Z,0
2017-02-02T04:01:40.134Z,0
2017-02-02T04:02:39.623Z,0
2017-02-02T04:03:39.393Z,0
2017-02-02T04:04:39.421Z,0
2017-02-02T04:05:40.235Z,0
2017-02-02T04:06:39.874Z,0
2017-02-02T04:07:40.143Z,0
2017-02-02T04:08:40.320Z,0
2017-02-02T04:09:39.953Z,0
2017-02-02T04:10:39.586Z,0
2017-02-02T04:11:40.003Z,0
2017-02-02T04:12:39.635Z,0
2017-02-02T04:13:39.912Z,0
2017-02-02T04:14:39.685Z,0
2017-02-02T04:15:40.506Z,0
2017-02-02T04:16:39.767Z,0
2017-02-02T04:17:40.151Z,0
2017-02-02T04:18:41.083Z,0
2017-02-02T04:19:40.216Z,0
2017-02-02T04:20:40.245Z,0
2017-02-02T04:21:40.262Z,0
2017-02-02T04:22:40.297Z,0
2017-02-02T04:23:40.175Z,0
2017-02-02T04:24:40.348Z,0
2017-02-02T04:25:40.805Z,0
2017-02-02T04:26:40.793Z,0
2017-02-02T04:27:39.627Z,0
2017-02-02T04:28:41.090Z,0
2017-02-02T04:29:40.080Z,0
2017-02-02T04:30:40.104Z,0
2017-02-02T04:31:39.737Z,0
2017-02-02T04:32:40.557Z,0
2017-02-02T04:33:40.979Z,0
2017-02-02T04:34:40.462Z,0
2017-02-02T04:35:40.634Z,0
2017-02-02T04:36:40.269Z,0
2017-02-02T04:37:40.294Z,0
2017-02-02T04:38:40.714Z,0
2017-02-02T04:39:40.591Z,0
2017-02-02T04:40:41.166Z,0
2017-02-02T04:41:39.993Z,0
2017-02-02T04:42:40.821Z,0
2017-02-02T04:43:41.238Z,0
2017-02-02T04:44:41.516Z,0
2017-02-02T04:45:40.914Z,0
2017-02-02T04:46:41.311Z,0
2017-02-02T04:47:40.552Z,0
2017-02-02T04:48:40.982Z,0
2017-02-02T04:49:40.858Z,0
2017-02-02T04:50:41.027Z,0
2017-02-02T04:51:41.056Z,0
2017-02-02T04:52:40.292Z,0
2017-02-02T04:53:41.501Z,0
2017-02-02T04:54:41.381Z,0
2017-02-02T04:55:41.166Z,0
2017-02-02T04:56:41.583Z,0
2017-02-02T04:57:41.216Z,0
2017-02-02T04:58:41.633Z,0
2017-02-02T04:59:41.516Z,0
2017-02-02T05:00:41.694Z,0
2017-02-02T05:01:41.716Z,0
2017-02-02T05:02:41.735Z,0
2017-02-02T05:03:41.363Z,0
2017-02-02T05:04:41.643Z,0
2017-02-02T05:05:41.418Z,0
2017-02-02T05:06:41.051Z,0
2017-02-02T05:07:41.476Z,0
2017-02-02T05:08:40.712Z,0
2017-02-02T05:09:42.168Z,0
2017-02-02T05:10:41.561Z,0
2017-02-02T05:11:41.181Z,0
2017-02-02T05:12:42.002Z,0
2017-02-02T05:13:41.239Z,0
2017-02-02T05:14:41.912Z,0
2017-02-02T05:15:41.293Z,0
2017-02-02T05:16:41.313Z,0
2017-02-02T05:17:41.735Z,0
2017-02-02T05:18:41.371Z,0
2017-02-02T05:19:42.438Z,0
2017-02-02T05:20:41.811Z,0
2017-02-02T05:21:41.841Z,0
2017-02-02T05:22:42.276Z,0
2017-02-02T05:23:41.503Z,0
2017-02-02T05:24:42.027Z,0
2017-02-02T05:25:41.160Z,0
2017-02-02T05:26:41.578Z,0
2017-02-02T05:27:41.995Z,0
2017-02-02T05:28:42.426Z,0
2017-02-02T05:29:42.703Z,0
2017-02-02T05:30:42.084Z,0
2017-02-02T05:31:41.712Z,0
2017-02-02T05:32:41.733Z,0
2017-02-02T05:33:42.159Z,0
2017-02-02T05:34:42.438Z,0
2017-02-02T05:35:42.610Z,0
2017-02-02T05:36:42.240Z,0
2017-02-02T05:37:42.267Z,0
2017-02-02T05:38:42.685Z,0
2017-02-02T05:39:41.922Z,0
2017-02-02T05:40:42.595Z,0
2017-02-02T05:41:41.971Z,0
2017-02-02T05:42:41.996Z,0
2017-02-02T05:43:42.425Z,0
2017-02-02T05:44:42.054Z,0
2017-02-02T05:45:42.731Z,0
2017-02-02T05:46:42.509Z,0
2017-02-02T05:47:42.532Z,0
2017-02-02T05:48:41.758Z,0
2017-02-02T05:49:42.185Z,0
2017-02-02T05:50:42.461Z,0
2017-02-02T05:51:42.239Z,0
2017-02-02T05:52:43.655Z,0
2017-02-02T05:53:43.084Z,0
2017-02-02T05:54:43.113Z,0
2017-02-02T05:55:42.586Z,0
2017-02-02T05:56:42.758Z,0
2017-02-02T05:57:42.791Z,0
2017-02-02T05:58:43.204Z,0
2017-02-02T05:59:43.245Z,0
2017-02-02T06:00:43.374Z,0
2017-02-02T06:01:43.305Z,0
2017-02-02T06:02:42.531Z,0
2017-02-02T06:03:43.352Z,0
2017-02-02T06:04:42.981Z,0
2017-02-02T06:05:43.257Z,0
2017-02-02T06:06:43.426Z,0
2017-02-02T06:07:43.455Z,0
2017-02-02T06:08:43.476Z,0
2017-02-02T06:09:42.716Z,0
2017-02-02T06:10:42.597Z,0
2017-02-02T06:11:43.153Z,0
2017-02-02T06:12:43.186Z,0
2017-02-02T06:13:43.607Z,0
2017-02-02T06:14:42.843Z,0
2017-02-02T06:15:43.768Z,0
2017-02-02T06:16:43.301Z,0
2017-02-02T06:17:43.718Z,0
2017-02-02T06:18:43.747Z,0
2017-02-02T06:19:43.800Z,0
2017-02-02T06:20:44.052Z,0
2017-02-02T06:21:43.033Z,0
2017-02-02T06:22:43.459Z,0
2017-02-02T06:23:43.478Z,0
2017-02-02T06:24:43.903Z,0
2017-02-02T06:25:43.791Z,0
2017-02-02T06:26:43.164Z,0
2017-02-02T06:27:43.589Z,0
2017-02-02T06:28:44.015Z,0
2017-02-02T06:29:43.665Z,0
2017-02-02T06:30:43.523Z,0
2017-02-02T06:31:44.091Z,0
2017-02-02T06:32:43.325Z,0
2017-02-02T06:33:43.350Z,0
2017-02-02T06:34:44.171Z,0
2017-02-02T06:35:44.055Z,0
2017-02-02T06:36:43.436Z,0
2017-02-02T06:37:43.461Z,0
2017-02-02T06:38:43.517Z,0
2017-02-02T06:39:44.299Z,0
2017-02-02T06:40:44.212Z,4
2017-02-02T06:41:43.571Z,4
2017-02-02T06:42:43.592Z,4
2017-02-02T06:43:43.621Z,4
2017-02-02T06:44:43.645Z,4
2017-02-02T06:45:44.322Z,4
2017-02-02T06:46:43.711Z,8
2017-02-02T06:47:43.724Z,8
2017-02-02T06:48:43.350Z,8
2017-02-02T06:49:44.174Z,12
2017-02-02T06:50:44.199Z,12
2017-02-02T06:51:44.484Z,12
2017-02-02T06:52:43.456Z,12
2017-02-02T06:53:44.285Z,16
2017-02-02T06:54:43.521Z,16
2017-02-02T06:55:44.330Z,20
2017-02-02T06:56:44.231Z,20
2017-02-02T06:57:43.996Z,24
2017-02-02T06:58:44.024Z,20
2017-02-02T06:59:44.842Z,24
2017-02-02T07:00:44.474Z,24
2017-02-02T07:01:44.347Z,24
2017-02-02T07:02:44.130Z,24
2017-02-02T07:03:44.548Z,32
2017-02-02T07:04:45.008Z,32
2017-02-02T07:05:44.601Z,36
2017-02-02T07:06:44.737Z,36
2017-02-02T07:07:44.658Z,40
2017-02-02T07:08:44.687Z,44
2017-02-02T07:09:45.112Z,44
2017-02-02T07:10:45.130Z,44
2017-02-02T07:11:45.009Z,44
2017-02-02T07:12:45.186Z,48
2017-02-02T07:13:44.819Z,52
2017-02-02T07:14:44.848Z,64
2017-02-02T07:15:44.077Z,72
2017-02-02T07:16:45.153Z,72
2017-02-02T07:17:44.521Z,72
2017-02-02T07:18:45.350Z,72
2017-02-02T07:19:44.987Z,76
2017-02-02T07:20:44.609Z,76
2017-02-02T07:21:45.929Z,80
2017-02-02T07:22:45.458Z,96
2017-02-02T07:23:45.090Z,120
2017-02-02T07:24:45.507Z,132
2017-02-02T07:25:45.139Z,136
2017-02-02T07:26:45.817Z,144
2017-02-02T07:27:45.190Z,144
2017-02-02T07:28:45.219Z,140
2017-02-02T07:29:44.851Z,164
2017-02-02T07:30:44.880Z,188
2017-02-02T07:31:45.552Z,208
2017-02-02T07:32:45.726Z,248
2017-02-02T07:33:44.961Z,268
2017-02-02T07:34:44.995Z,284
2017-02-02T07:35:45.011Z,296
2017-02-02T07:36:46.083Z,300
2017-02-02T07:37:45.865Z,300
2017-02-02T07:38:45.092Z,300
2017-02-02T07:39:45.517Z,312
2017-02-02T07:40:44.752Z,320
2017-02-02T07:41:45.577Z,324
2017-02-02T07:42:46.244Z,328
2017-02-02T07:43:44.833Z,336
2017-02-02T07:44:45.650Z,352
2017-02-02T07:45:46.076Z,368
2017-02-02T07:46:45.704Z,384
2017-02-02T07:47:45.585Z,404
2017-02-02T07:48:45.369Z,420
2017-02-02T07:49:45.390Z,444
2017-02-02T07:50:46.207Z,464
2017-02-02T07:51:46.231Z,476
2017-02-02T07:52:46.515Z,488
2017-02-02T07:53:45.888Z,512
2017-02-02T07:54:45.928Z,520
2017-02-02T07:55:45.546Z,540
2017-02-02T07:56:45.978Z,544
2017-02-02T07:57:46.640Z,548
2017-02-02T07:58:45.664Z,540
2017-02-02T07:59:46.053Z,536
2017-02-02T08:00:46.074Z,528
2017-02-02T08:01:46.512Z,516
2017-02-02T08:02:46.782Z,504
2017-02-02T08:03:46.158Z,488
2017-02-02T08:04:45.789Z,460
2017-02-02T08:05:45.425Z,436
2017-02-02T08:06:45.891Z,420
2017-02-02T08:07:46.519Z,412
2017-02-02T08:08:46.703Z,408
2017-02-02T08:09:46.707Z,408
2017-02-02T08:10:46.741Z,408
2017-02-02T08:11:46.369Z,428
2017-02-02T08:12:46.646Z,460
2017-02-02T08:13:46.427Z,512
2017-02-02T08:14:46.053Z,544
2017-02-02T08:15:46.081Z,580
2017-02-02T08:16:46.114Z,640
2017-02-02T08:17:47.175Z,704
2017-02-02T08:18:46.568Z,780
2017-02-02T08:19:46.984Z,908
2017-02-02T08:20:46.217Z,1112
2017-02-02T08:21:46.245Z,1316
2017-02-02T08:22:46.917Z,1252
2017-02-02T08:23:46.695Z,1652
2017-02-02T08:24:46.724Z,1404
2017-02-02T08:25:45.962Z,1296
2017-02-02T08:26:47.168Z,1272
2017-02-02T08:27:46.654Z,1252
2017-02-02T08:28:47.226Z,1220
2017-02-02T08:29:47.256Z,1192
2017-02-02T08:30:46.487Z,1180
2017-02-02T08:31:46.914Z,1200
2017-02-02T08:32:46.793Z,1240
2017-02-02T08:33:46.962Z,1276
2017-02-02T08:34:47.383Z,1388
2017-02-02T08:35:47.415Z,1396
2017-02-02T08:36:47.044Z,1460
2017-02-02T08:37:48.017Z,1708
2017-02-02T08:38:47.095Z,1616
2017-02-02T08:39:47.519Z,1768
2017-02-02T08:40:47.147Z,1912
2017-02-02T08:41:47.572Z,1956
2017-02-02T08:42:47.856Z,1784
2017-02-02T08:43:46.841Z,1696
2017-02-02T08:44:46.863Z,1708
2017-02-02T08:45:46.490Z,1728
2017-02-02T08:46:47.715Z,1756
2017-02-02T08:47:47.988Z,1820
2017-02-02T08:48:47.365Z,1752
2017-02-02T08:49:47.790Z,1676
2017-02-02T08:50:47.819Z,1948
2017-02-02T08:51:47.455Z,2056
2017-02-02T08:52:47.076Z,2336
2017-02-02T08:53:46.957Z,2252
2017-02-02T08:54:47.134Z,2296
2017-02-02T08:55:46.758Z,2504
2017-02-02T08:56:47.975Z,2452
2017-02-02T08:57:47.606Z,2372
2017-02-02T08:58:47.493Z,2364
2017-02-02T08:59:47.273Z,2484
2017-02-02T09:00:47.686Z,2620
2017-02-02T09:01:47.315Z,2428
2017-02-02T09:02:47.748Z,2272
2017-02-02T09:03:47.228Z,2228
2017-02-02T09:04:47.410Z,1972
2017-02-02T09:05:47.828Z,1744
2017-02-02T09:06:47.851Z,1684
2017-02-02T09:07:48.280Z,1624
2017-02-02T09:08:48.556Z,1572
2017-02-02T09:09:47.937Z,1524
2017-02-02T09:10:48.362Z,1496
2017-02-02T09:11:47.594Z,1500
2017-02-02T09:12:47.619Z,1468
2017-02-02T09:13:48.536Z,1560
2017-02-02T09:14:48.064Z,1624
2017-02-02T09:15:47.300Z,1488
2017-02-02T09:16:47.725Z,1404
2017-02-02T09:17:48.150Z,1304
2017-02-02T09:18:48.027Z,1300
2017-02-02T09:19:48.203Z,1408
2017-02-02T09:20:48.652Z,1540
2017-02-02T09:21:48.262Z,1616
2017-02-02T09:22:48.285Z,1644
2017-02-02T09:23:48.975Z,1820
2017-02-02T09:24:47.943Z,1940
2017-02-02T09:25:47.572Z,1900
2017-02-02T09:26:48.785Z,2068
2017-02-02T09:27:48.814Z,1944
2017-02-02T09:28:48.554Z,1780
2017-02-02T09:29:48.866Z,2056
2017-02-02T09:30:48.499Z,1852
2017-02-02T09:31:48.528Z,1800
2017-02-02T09:32:47.760Z,1964
2017-02-02T09:33:48.437Z,1812
2017-02-02T09:34:47.817Z,2016
2017-02-02T09:35:48.239Z,2360
2017-02-02T09:36:48.663Z,2376
2017-02-02T09:37:49.081Z,1876
2017-02-02T09:38:48.973Z,1548
2017-02-02T09:39:48.741Z,1536
2017-02-02T09:40:48.374Z,1692
2017-02-02T09:41:48.419Z,1656
2017-02-02T09:42:49.224Z,1908
2017-02-02T09:43:48.959Z,1556
2017-02-02T09:44:48.881Z,1648
2017-02-02T09:45:48.510Z,1820
2017-02-02T09:46:49.327Z,2128
2017-02-02T09:47:48.959Z,2168
2017-02-02T09:48:48.868Z,2276
2017-02-02T09:49:49.017Z,2304
2017-02-02T09:50:49.041Z,2064
2017-02-02T09:51:49.463Z,1792
2017-02-02T09:52:49.104Z,2052
2017-02-02T09:53:48.999Z,2428
2017-02-02T09:54:48.760Z,2440
2017-02-02T09:55:49.573Z,2440
2017-02-02T09:56:48.806Z,2396
2017-02-02T09:57:49.235Z,2000
2017-02-02T09:58:49.651Z,2356
2017-02-02T09:59:49.535Z,2396
2017-02-02T10:00:49.308Z,2396
2017-02-02T10:01:48.948Z,2040
2017-02-02T10:02:49.762Z,1740
2017-02-02T10:03:49.394Z,1576
2017-02-02T10:04:49.280Z,1540
2017-02-02T10:05:49.457Z,1436
2017-02-02T10:06:49.873Z,1560
2017-02-02T10:07:49.898Z,1304
2017-02-02T10:08:49.930Z,1432
2017-02-02T10:09:49.816Z,1544
2017-02-02T10:10:50.012Z,1356
2017-02-02T10:11:49.616Z,1588
2017-02-02T10:12:49.650Z,1748
2017-02-02T10:13:49.273Z,1284
2017-02-02T10:14:49.187Z,1480
2017-02-02T10:15:49.752Z,2116
2017-02-02T10:16:49.753Z,2320
2017-02-02T10:17:50.177Z,1732
2017-02-02T10:18:49.406Z,1492
2017-02-02T10:19:50.729Z,1736
2017-02-02T10:20:49.858Z,1480
2017-02-02T10:21:49.508Z,1252
2017-02-02T10:22:50.313Z,1176
2017-02-02T10:23:49.557Z,1284
2017-02-02T10:24:50.223Z,1616
2017-02-02T10:25:50.399Z,2004
2017-02-02T10:26:50.032Z,2596
2017-02-02T10:27:50.453Z,2380
2017-02-02T10:28:49.692Z,2516
2017-02-02T10:29:50.349Z,2440
2017-02-02T10:30:49.741Z,2508
2017-02-02T10:31:50.175Z,2136
2017-02-02T10:32:49.792Z,1980
2017-02-02T10:33:50.609Z,1872
2017-02-02T10:34:50.494Z,1992
2017-02-02T10:35:50.270Z,1948
2017-02-02T10:36:49.903Z,2020
2017-02-02T10:37:49.921Z,2144
2017-02-02T10:38:49.952Z,2344
2017-02-02T10:39:51.025Z,2756
2017-02-02T10:40:50.409Z,2836
2017-02-02T10:41:50.043Z,2828
2017-02-02T10:42:50.064Z,3080
2017-02-02T10:43:50.080Z,3152
2017-02-02T10:44:51.164Z,3080
2017-02-02T10:45:50.938Z,3208
2017-02-02T10:46:50.570Z,3464
2017-02-02T10:47:50.599Z,3652
2017-02-02T10:48:50.624Z,3740
2017-02-02T10:49:50.113Z,3776
2017-02-02T10:50:51.078Z,3988
2017-02-02T10:51:50.314Z,4076
2017-02-02T10:52:51.131Z,4128
2017-02-02T10:53:50.794Z,4204
2017-02-02T10:54:51.044Z,4360
2017-02-02T10:55:50.821Z,4292
2017-02-02T10:56:51.250Z,4244
2017-02-02T10:57:50.867Z,3956
2017-02-02T10:58:50.107Z,3912
2017-02-02T10:59:51.180Z,3544
2017-02-02T11:00:50.165Z,3208
2017-02-02T11:01:50.585Z,2948
2017-02-02T11:02:51.014Z,2780
2017-02-02T11:03:51.031Z,2672
2017-02-02T11:04:50.676Z,2568
2017-02-02T11:05:51.341Z,2500
2017-02-02T11:06:51.522Z,2440
2017-02-02T11:07:50.754Z,2404
2017-02-02T11:08:50.779Z,2456
2017-02-02T11:09:51.207Z,2656
2017-02-02T11:10:51.088Z,3336
2017-02-02T11:11:51.656Z,3932
2017-02-02T11:12:50.892Z,2956
2017-02-02T11:13:51.314Z,2568
2017-02-02T11:14:51.731Z,2996
2017-02-02T11:15:51.225Z,2820
2017-02-02T11:16:51.801Z,3000
2017-02-02T11:17:51.421Z,3304
2017-02-02T11:18:51.446Z,3800
2017-02-02T11:19:51.487Z,3832
2017-02-02T11:20:52.624Z,3984
2017-02-02T11:21:51.536Z,4128
2017-02-02T11:22:51.562Z,4248
2017-02-02T11:23:51.590Z,4392
2017-02-02T11:24:51.619Z,4292
2017-02-02T11:25:51.899Z,4252
2017-02-02T11:26:51.675Z,4388
2017-02-02T11:27:50.910Z,4400
2017-02-02T11:28:51.337Z,4560
2017-02-02T11:29:52.158Z,4376
2017-02-02T11:30:52.059Z,4260
2017-02-02T11:31:52.222Z,4304
2017-02-02T11:32:52.241Z,4140
2017-02-02T11:33:51.870Z,4564
2017-02-02T11:34:51.902Z,4276
2017-02-02T11:35:52.571Z,4184
2017-02-02T11:36:51.955Z,4416
2017-02-02T11:37:51.590Z,4760
2017-02-02T11:38:52.009Z,5296
2017-02-02T11:39:52.037Z,6824
2017-02-02T11:40:52.321Z,7292
2017-02-02T11:41:52.099Z,7332
2017-02-02T11:42:52.519Z,7448
2017-02-02T11:43:52.140Z,7788
2017-02-02T11:44:52.577Z,6260
2017-02-02T11:45:52.058Z,6148
2017-02-02T11:46:52.626Z,6476
2017-02-02T11:47:51.862Z,5948
2017-02-02T11:48:52.287Z,4856
2017-02-02T11:49:52.329Z,4812
2017-02-02T11:50:52.592Z,5948
2017-02-02T11:51:52.775Z,5560
2017-02-02T11:52:52.795Z,5328
2017-02-02T11:53:52.824Z,4612
2017-02-02T11:54:52.461Z,4776
2017-02-02T11:55:52.341Z,4932
2017-02-02T11:56:52.525Z,5296
2017-02-02T11:57:52.939Z,5408
2017-02-02T11:58:52.572Z,5884
2017-02-02T11:59:51.808Z,5856
2017-02-02T12:00:52.513Z,5968
2017-02-02T12:01:51.866Z,5728
2017-02-02T12:02:52.294Z,5724
2017-02-02T12:03:52.707Z,5500
2017-02-02T12:04:53.139Z,5600
2017-02-02T12:05:53.020Z,6096
2017-02-02T12:06:52.801Z,6276
2017-02-02T12:07:52.433Z,6224
2017-02-02T12:08:53.242Z,6028
2017-02-02T12:09:52.484Z,5632
2017-02-02T12:10:52.912Z,5112
2017-02-02T12:11:52.792Z,4808
2017-02-02T12:12:52.961Z,4568
2017-02-02T12:13:53.392Z,4392
2017-02-02T12:14:52.627Z,4380
2017-02-02T12:15:53.450Z,4408
2017-02-02T12:16:53.333Z,4484
2017-02-02T12:17:53.109Z,4496
2017-02-02T12:18:52.735Z,4500
2017-02-02T12:19:52.771Z,4468
2017-02-02T12:20:52.795Z,4384
2017-02-02T12:21:53.076Z,4288
2017-02-02T12:22:53.646Z,4232
2017-02-02T12:23:53.682Z,4276
2017-02-02T12:24:53.306Z,4328
2017-02-02T12:25:53.724Z,4332
2017-02-02T12:26:54.010Z,4304
2017-02-02T12:27:52.594Z,4312
2017-02-02T12:28:53.425Z,4384
2017-02-02T12:29:53.457Z,4408
2017-02-02T12:30:53.083Z,4376
2017-02-02T12:31:53.760Z,4264
2017-02-02T12:32:53.137Z,4096
2017-02-02T12:33:53.566Z,3940
2017-02-02T12:34:52.834Z,3924
2017-02-02T12:35:53.215Z,4072
2017-02-02T12:36:53.495Z,3928
2017-02-02T12:37:53.284Z,4080
2017-02-02T12:38:52.917Z,4104
2017-02-02T12:39:53.737Z,4156
2017-02-02T12:40:53.363Z,4184
2017-02-02T12:41:53.259Z,4256
2017-02-02T12:42:54.220Z,3904
2017-02-02T12:43:53.849Z,4092
2017-02-02T12:44:54.273Z,4272
2017-02-02T12:45:53.110Z,4460
2017-02-02T12:46:53.786Z,5144
2017-02-02T12:47:53.556Z,4816
2017-02-02T12:48:54.000Z,4676
2017-02-02T12:49:54.410Z,4668
2017-02-02T12:50:54.050Z,4748
2017-02-02T12:51:53.934Z,4900
2017-02-02T12:52:54.136Z,5216
2017-02-02T12:53:54.519Z,4408
2017-02-02T12:54:54.164Z,4416
2017-02-02T12:55:54.185Z,4532
2017-02-02T12:56:54.470Z,4244
2017-02-02T12:57:53.455Z,4208
2017-02-02T12:58:54.284Z,4132
2017-02-02T12:59:54.305Z,3860
2017-02-02T13:00:54.330Z,3956
2017-02-02T13:01:55.006Z,3708
2017-02-02T13:02:54.792Z,3744
2017-02-02T13:03:54.419Z,3684
2017-02-02T13:04:53.646Z,3692
2017-02-02T13:05:54.869Z,3652
2017-02-02T13:06:54.758Z,3660
2017-02-02T13:07:54.527Z,3776
2017-02-02T13:08:54.952Z,3836
2017-02-02T13:09:53.790Z,3904
2017-02-02T13:10:54.225Z,3940
2017-02-02T13:11:54.900Z,3784
2017-02-02T13:12:54.678Z,3616
2017-02-02T13:13:54.311Z,3468
2017-02-02T13:14:54.739Z,3332
2017-02-02T13:15:54.760Z,3284
2017-02-02T13:16:54.389Z,3264
2017-02-02T13:17:54.673Z,3240
2017-02-02T13:18:54.842Z,3324
2017-02-02T13:19:54.876Z,3440
2017-02-02T13:20:55.295Z,3432
2017-02-02T13:21:54.538Z,3376
2017-02-02T13:22:55.617Z,3336
2017-02-02T13:23:54.986Z,3344
2017-02-02T13:24:55.017Z,3312
2017-02-02T13:25:55.434Z,3208
2017-02-02T13:26:54.280Z,3124
2017-02-02T13:27:54.961Z,3056
2017-02-02T13:28:55.526Z,2908
2017-02-02T13:29:54.366Z,2728
2017-02-02T13:30:55.583Z,2576
2017-02-02T13:31:55.608Z,2472
2017-02-02T13:32:55.897Z,2428
2017-02-02T13:33:54.873Z,2408
2017-02-02T13:34:55.309Z,2380
2017-02-02T13:35:54.939Z,2324
2017-02-02T13:36:55.356Z,2180
2017-02-02T13:37:56.029Z,2072
2017-02-02T13:38:55.809Z,2000
2017-02-02T13:39:55.474Z,1960
2017-02-02T13:40:55.898Z,1948
2017-02-02T13:41:55.904Z,1968
2017-02-02T13:42:56.171Z,1976
2017-02-02T13:43:55.557Z,2012
2017-02-02T13:44:55.185Z,2040
2017-02-02T13:45:56.042Z,2052
2017-02-02T13:46:56.039Z,2028
2017-02-02T13:47:55.371Z,1996
2017-02-02T13:48:55.301Z,1992
2017-02-02T13:49:55.727Z,1988
2017-02-02T13:50:55.754Z,2036
2017-02-02T13:51:55.787Z,2108
2017-02-02T13:52:56.456Z,2204
2017-02-02T13:53:55.456Z,2296
2017-02-02T13:54:55.473Z,2344
2017-02-02T13:55:55.898Z,2412
2017-02-02T13:56:56.323Z,2444
2017-02-02T13:57:55.807Z,2404
2017-02-02T13:58:55.585Z,2332
2017-02-02T13:59:56.009Z,2308
2017-02-02T14:00:56.438Z,2296
2017-02-02T14:01:55.675Z,2292
2017-02-02T14:02:55.556Z,2316
2017-02-02T14:03:55.728Z,2324